EHWO/WOE METAR and TAF weather

Enter ICAO airport designator
Station Type Date Time Source
EHWO METAR 2019/05/23 19:25 UTC NOAA

EHWO 231925Z AUTO 32001KT 9999 FEW060 BKN190 OVC260 17/09 Q1015 BLU


Station Type Date Time Source
EHWO Decoded METAR 2019/05/23 19:25 UTC NOAA

Woensdrecht, Netherlands (EHWO) 51-27N 004-20E 17M
May 23, 2019 - 03:25 PM EDT / 2019.05.23 1925 UTC
Wind: from the NW (320 degrees) at 1 MPH (1 KT):0
Visibility: greater than 7 mile(s):0
Sky conditions: overcast
Temperature: 62 F (17 C)
Dew Point: 48 F (9 C)
Relative Humidity: 59%
Pressure (altimeter): 29.97 in. Hg (1015 hPa)
ob: EHWO 231925Z AUTO 32001KT 9999 FEW060 BKN190 OVC260 17/09 Q1015 BLU
cycle: 19

Station Type Date Time Source
EHWO TAF 2019/05/23 09:06 UTC NOAA

TAF EHWO 230836Z 2309/2321 26007G17KT CAVOK
BECMG 2315/2318 VRB03KT

Example: see airport list